Exeland, WI (54835)

12:44 AM CST on February 09, 2016 (GMT -0600)
Dam Road | | Change Station
CLOSE
Current Station
Personal Weather Station
Location: Winter, WI
Elevation: 1312 ft
Nearby Weather Stations

Elev 1312 ft 45.87 °N, 91.07 °W | Updated 22 seconds ago

Overcast
Overcast
8.3 °F
Feels Like 0 °F
N
4.6
Wind Variable Wind from NNW
Gusts 4.6 mph

Today
High -- | Low -- °F
--% Chance of Precip.
Yesterday
High -- | Low -- °F
Precip. -- in
Pressure 29.88 in
Visibility 7.0 miles
Clouds Mostly Cloudy 2100 ft
Mostly Cloudy 3800 ft
Overcast 11000 ft
Windchill 0 °F
Dew Point 4 °F
Humidity 82%
Rainfall 0.00 in
Snow Depth Not available.
7:16 AM 5:22 PM
New Moon, 1% visible
METAR KRCX 090635Z AUTO 31010KT 7SM -SN BKN021 BKN038 OVC110 M13/M16 A2988 RMK AO2 T11331160
Pressure 29.88 in
Visibility 7.0 miles
Clouds Mostly Cloudy 2100 ft
Mostly Cloudy 3800 ft
Overcast 11000 ft
Windchill 0 °F
Dew Point 4 °F
Humidity 82%
Rainfall 0.00 in
Snow Depth Not available.
7:16 AM 5:22 PM
New Moon, 1% visible
METAR KRCX 090635Z AUTO 31010KT 7SM -SN BKN021 BKN038 OVC110 M13/M16 A2988 RMK AO2 T11331160

10-Day Weather Forecast

Almanac

Astronomy

Feb. 09, 2016 Rise Set
Actual Time
Civil Twilight
Nautical Twilight
Astronomical Twilight
Moon
Length of Visible Light
Length of Day
Tomorrow will be .
, % of the Moon is Illuminated

Today's Extremes

State Highs State Lows

Community

WunderPhotos

Upload Photos

1,891,571 photos uploaded!

WunderBlog® & News

Nearby

Air Quality

  Air Quality AQ Index Pollutant
Not available.

Snow Depth

Station Depth Elevation

Earthquake Activity

City Distance Mag. Time & Date
Minimum magnitude displayed is 2.5.

Coastal Water Temperatures

Place Temperature

Stations

Nearby Weather Stations

Station Location Temp. Windchill Dew Point Humidity Wind Precip. Elev Updated Type
                   

Watches & Warnings

There are currently no watches in effect.